sensor_id;sensor_type;location;lat;lon;timestamp;temperature;humidity
25918;DHT22;13899;51.174;4.456;2024-03-08T00:00:34;6.50;99.90
25918;DHT22;13899;51.174;4.456;2024-03-08T00:02:59;6.20;99.90
25918;DHT22;13899;51.174;4.456;2024-03-08T00:05:27;6.20;99.90
25918;DHT22;13899;51.174;4.456;2024-03-08T00:07:52;6.50;99.90
25918;DHT22;13899;51.174;4.456;2024-03-08T00:10:18;6.40;99.90
25918;DHT22;13899;51.174;4.456;2024-03-08T00:12:46;6.30;99.90
25918;DHT22;13899;51.174;4.456;2024-03-08T00:15:12;6.50;99.90
25918;DHT22;13899;51.174;4.456;2024-03-08T00:17:42;6.30;99.90
25918;DHT22;13899;51.174;4.456;2024-03-08T00:20:08;6.50;99.90
25918;DHT22;13899;51.174;4.456;2024-03-08T00:22:34;6.30;99.90
25918;DHT22;13899;51.174;4.456;2024-03-08T00:25:01;6.20;99.90
25918;DHT22;13899;51.174;4.456;2024-03-08T00:27:27;6.40;99.90
25918;DHT22;13899;51.174;4.456;2024-03-08T00:29:56;6.60;99.90
25918;DHT22;13899;51.174;4.456;2024-03-08T00:32:22;6.40;99.90
25918;DHT22;13899;51.174;4.456;2024-03-08T00:34:50;6.40;99.90
25918;DHT22;13899;51.174;4.456;2024-03-08T00:37:17;6.10;99.90
25918;DHT22;13899;51.174;4.456;2024-03-08T00:39:43;6.10;99.90
25918;DHT22;13899;51.174;4.456;2024-03-08T00:42:08;6.10;99.90
25918;DHT22;13899;51.174;4.456;2024-03-08T00:44:34;6.00;99.90
25918;DHT22;13899;51.174;4.456;2024-03-08T00:46:59;5.90;99.90
25918;DHT22;13899;51.174;4.456;2024-03-08T00:49:25;5.70;99.90
25918;DHT22;13899;51.174;4.456;2024-03-08T00:51:50;5.60;99.90
25918;DHT22;13899;51.174;4.456;2024-03-08T00:54:16;5.50;99.90
25918;DHT22;13899;51.174;4.456;2024-03-08T00:56:42;5.70;99.90
25918;DHT22;13899;51.174;4.456;2024-03-08T00:59:07;5.80;99.90
25918;DHT22;13899;51.174;4.456;2024-03-08T01:01:33;6.10;99.90
25918;DHT22;13899;51.174;4.456;2024-03-08T01:03:58;6.20;99.90
25918;DHT22;13899;51.174;4.456;2024-03-08T01:06:24;6.00;99.90
25918;DHT22;13899;51.174;4.456;2024-03-08T01:08:49;5.90;99.90
25918;DHT22;13899;51.174;4.456;2024-03-08T01:11:18;5.80;99.90
25918;DHT22;13899;51.174;4.456;2024-03-08T01:13:44;5.60;99.90
25918;DHT22;13899;51.174;4.456;2024-03-08T01:16:12;5.80;99.90
25918;DHT22;13899;51.174;4.456;2024-03-08T01:18:38;5.70;99.90
25918;DHT22;13899;51.174;4.456;2024-03-08T01:21:03;5.90;99.90
25918;DHT22;13899;51.174;4.456;2024-03-08T01:23:29;5.70;99.90
25918;DHT22;13899;51.174;4.456;2024-03-08T01:25:55;5.70;99.90
25918;DHT22;13899;51.174;4.456;2024-03-08T01:28:25;5.80;99.90
25918;DHT22;13899;51.174;4.456;2024-03-08T01:30:51;5.70;99.90
25918;DHT22;13899;51.174;4.456;2024-03-08T01:33:24;5.60;99.90
25918;DHT22;13899;51.174;4.456;2024-03-08T01:35:51;5.90;99.90
25918;DHT22;13899;51.174;4.456;2024-03-08T01:38:16;5.90;99.90
25918;DHT22;13899;51.174;4.456;2024-03-08T01:40:42;5.80;99.90
25918;DHT22;13899;51.174;4.456;2024-03-08T01:43:17;5.40;99.90
25918;DHT22;13899;51.174;4.456;2024-03-08T01:45:43;5.30;99.90
25918;DHT22;13899;51.174;4.456;2024-03-08T01:48:09;5.20;99.90
25918;DHT22;13899;51.174;4.456;2024-03-08T01:50:35;5.50;99.90
25918;DHT22;13899;51.174;4.456;2024-03-08T01:53:02;5.70;99.90
25918;DHT22;13899;51.174;4.456;2024-03-08T01:55:27;5.80;99.90
25918;DHT22;13899;51.174;4.456;2024-03-08T01:57:53;5.80;99.90
25918;DHT22;13899;51.174;4.456;2024-03-08T02:00:18;5.40;99.90
25918;DHT22;13899;51.174;4.456;2024-03-08T02:02:46;5.40;99.90
25918;DHT22;13899;51.174;4.456;2024-03-08T02:05:12;5.40;99.90
25918;DHT22;13899;51.174;4.456;2024-03-08T02:07:40;5.50;99.90
25918;DHT22;13899;51.174;4.456;2024-03-08T02:10:09;5.60;99.90
25918;DHT22;13899;51.174;4.456;2024-03-08T02:12:35;5.40;99.90
25918;DHT22;13899;51.174;4.456;2024-03-08T02:15:00;5.70;99.90
25918;DHT22;13899;51.174;4.456;2024-03-08T02:17:26;5.90;99.90
25918;DHT22;13899;51.174;4.456;2024-03-08T02:19:52;5.70;99.90
25918;DHT22;13899;51.174;4.456;2024-03-08T02:22:17;5.70;99.90
25918;DHT22;13899;51.174;4.456;2024-03-08T02:24:43;5.60;99.90
25918;DHT22;13899;51.174;4.456;2024-03-08T02:27:08;5.70;99.90
25918;DHT22;13899;51.174;4.456;2024-03-08T02:29:37;5.60;99.90
25918;DHT22;13899;51.174;4.456;2024-03-08T02:32:02;5.50;99.90
25918;DHT22;13899;51.174;4.456;2024-03-08T02:34:28;5.30;99.90
25918;DHT22;13899;51.174;4.456;2024-03-08T02:36:56;5.30;99.90
25918;DHT22;13899;51.174;4.456;2024-03-08T02:39:22;5.50;99.90
25918;DHT22;13899;51.174;4.456;2024-03-08T02:41:47;5.50;99.90
25918;DHT22;13899;51.174;4.456;2024-03-08T02:44:13;5.30;99.90
25918;DHT22;13899;51.174;4.456;2024-03-08T02:46:40;5.10;99.90
25918;DHT22;13899;51.174;4.456;2024-03-08T02:49:05;4.90;99.90
25918;DHT22;13899;51.174;4.456;2024-03-08T02:51:33;4.60;99.90
25918;DHT22;13899;51.174;4.456;2024-03-08T02:54:00;4.50;99.90
25918;DHT22;13899;51.174;4.456;2024-03-08T02:56:26;4.80;99.90
25918;DHT22;13899;51.174;4.456;2024-03-08T02:58:51;4.70;99.90
25918;DHT22;13899;51.174;4.456;2024-03-08T03:01:17;4.70;99.90
25918;DHT22;13899;51.174;4.456;2024-03-08T03:03:45;4.80;99.90
25918;DHT22;13899;51.174;4.456;2024-03-08T03:06:12;4.90;99.90
25918;DHT22;13899;51.174;4.456;2024-03-08T03:08:37;5.00;99.90
25918;DHT22;13899;51.174;4.456;2024-03-08T03:11:04;4.90;99.90
25918;DHT22;13899;51.174;4.456;2024-03-08T03:13:29;4.80;99.90
25918;DHT22;13899;51.174;4.456;2024-03-08T03:15:55;4.90;99.90
25918;DHT22;13899;51.174;4.456;2024-03-08T03:18:23;4.90;99.90
25918;DHT22;13899;51.174;4.456;2024-03-08T03:20:49;5.00;99.90
25918;DHT22;13899;51.174;4.456;2024-03-08T03:23:14;5.30;99.90
25918;DHT22;13899;51.174;4.456;2024-03-08T03:25:45;5.00;99.90
25918;DHT22;13899;51.174;4.456;2024-03-08T03:28:11;4.70;99.90
25918;DHT22;13899;51.174;4.456;2024-03-08T03:30:39;4.80;99.90
25918;DHT22;13899;51.174;4.456;2024-03-08T03:33:05;4.60;99.90
25918;DHT22;13899;51.174;4.456;2024-03-08T03:35:33;4.60;99.90
25918;DHT22;13899;51.174;4.456;2024-03-08T03:37:59;4.70;99.90
25918;DHT22;13899;51.174;4.456;2024-03-08T03:40:35;4.70;99.90
25918;DHT22;13899;51.174;4.456;2024-03-08T03:43:01;4.70;99.90
25918;DHT22;13899;51.174;4.456;2024-03-08T03:45:28;4.70;99.90
25918;DHT22;13899;51.174;4.456;2024-03-08T03:47:53;4.90;99.90
25918;DHT22;13899;51.174;4.456;2024-03-08T03:50:19;5.10;99.90
25918;DHT22;13899;51.174;4.456;2024-03-08T03:52:45;5.10;99.90
25918;DHT22;13899;51.174;4.456;2024-03-08T03:55:11;4.90;99.90
25918;DHT22;13899;51.174;4.456;2024-03-08T03:57:37;4.90;99.90
25918;DHT22;13899;51.174;4.456;2024-03-08T04:00:03;4.60;99.90
25918;DHT22;13899;51.174;4.456;2024-03-08T04:02:29;4.60;99.90
25918;DHT22;13899;51.174;4.456;2024-03-08T04:04:55;4.50;99.90
25918;DHT22;13899;51.174;4.456;2024-03-08T04:07:21;4.30;99.90
25918;DHT22;13899;51.174;4.456;2024-03-08T04:09:46;4.30;99.90
25918;DHT22;13899;51.174;4.456;2024-03-08T04:12:12;4.60;99.90
25918;DHT22;13899;51.174;4.456;2024-03-08T04:14:40;4.60;99.90
25918;DHT22;13899;51.174;4.456;2024-03-08T04:17:06;4.60;99.90
25918;DHT22;13899;51.174;4.456;2024-03-08T04:19:34;4.60;99.90
25918;DHT22;13899;51.174;4.456;2024-03-08T04:22:00;4.40;99.90
25918;DHT22;13899;51.174;4.456;2024-03-08T04:24:26;4.20;99.90
25918;DHT22;13899;51.174;4.456;2024-03-08T04:26:51;4.20;99.90
25918;DHT22;13899;51.174;4.456;2024-03-08T04:29:18;4.30;99.90
25918;DHT22;13899;51.174;4.456;2024-03-08T04:31:44;4.00;99.90
25918;DHT22;13899;51.174;4.456;2024-03-08T04:34:10;4.00;99.90
25918;DHT22;13899;51.174;4.456;2024-03-08T04:36:35;4.20;99.90
25918;DHT22;13899;51.174;4.456;2024-03-08T04:39:01;4.10;99.90
25918;DHT22;13899;51.174;4.456;2024-03-08T04:41:26;3.90;99.90
25918;DHT22;13899;51.174;4.456;2024-03-08T04:43:52;3.60;99.90
25918;DHT22;13899;51.174;4.456;2024-03-08T04:46:17;3.60;99.90
25918;DHT22;13899;51.174;4.456;2024-03-08T04:48:43;3.80;99.90
25918;DHT22;13899;51.174;4.456;2024-03-08T04:51:09;4.40;99.90
25918;DHT22;13899;51.174;4.456;2024-03-08T04:53:35;4.10;99.90
25918;DHT22;13899;51.174;4.456;2024-03-08T04:56:00;3.80;99.90
25918;DHT22;13899;51.174;4.456;2024-03-08T04:58:31;3.90;99.90
25918;DHT22;13899;51.174;4.456;2024-03-08T05:00:57;4.10;99.90
25918;DHT22;13899;51.174;4.456;2024-03-08T05:03:22;4.20;99.90
25918;DHT22;13899;51.174;4.456;2024-03-08T05:05:51;4.00;99.90
25918;DHT22;13899;51.174;4.456;2024-03-08T05:08:17;4.10;99.90
25918;DHT22;13899;51.174;4.456;2024-03-08T05:10:44;4.30;99.90
25918;DHT22;13899;51.174;4.456;2024-03-08T05:13:09;4.10;99.90
25918;DHT22;13899;51.174;4.456;2024-03-08T05:15:35;3.90;99.90
25918;DHT22;13899;51.174;4.456;2024-03-08T05:18:02;3.90;99.90
25918;DHT22;13899;51.174;4.456;2024-03-08T05:20:27;4.20;99.90
25918;DHT22;13899;51.174;4.456;2024-03-08T05:22:53;4.20;99.90
25918;DHT22;13899;51.174;4.456;2024-03-08T05:25:18;4.40;99.90
25918;DHT22;13899;51.174;4.456;2024-03-08T05:27:44;4.30;99.90
25918;DHT22;13899;51.174;4.456;2024-03-08T05:30:09;4.00;99.90
25918;DHT22;13899;51.174;4.456;2024-03-08T05:32:41;3.70;99.90
25918;DHT22;13899;51.174;4.456;2024-03-08T05:35:10;3.60;99.90
25918;DHT22;13899;51.174;4.456;2024-03-08T05:37:36;3.70;99.90
25918;DHT22;13899;51.174;4.456;2024-03-08T05:40:02;3.70;99.90
25918;DHT22;13899;51.174;4.456;2024-03-08T05:42:28;4.10;99.90
25918;DHT22;13899;51.174;4.456;2024-03-08T05:44:54;4.20;99.90
25918;DHT22;13899;51.174;4.456;2024-03-08T05:47:22;4.10;99.90
25918;DHT22;13899;51.174;4.456;2024-03-08T05:49:48;4.10;99.90
25918;DHT22;13899;51.174;4.456;2024-03-08T05:52:13;3.80;99.90
25918;DHT22;13899;51.174;4.456;2024-03-08T05:54:39;3.70;99.90
25918;DHT22;13899;51.174;4.456;2024-03-08T05:57:06;4.00;99.90
25918;DHT22;13899;51.174;4.456;2024-03-08T05:59:31;4.00;99.90
25918;DHT22;13899;51.174;4.456;2024-03-08T06:01:57;4.00;99.90
25918;DHT22;13899;51.174;4.456;2024-03-08T06:04:23;4.00;99.90
25918;DHT22;13899;51.174;4.456;2024-03-08T06:06:48;3.90;99.90
25918;DHT22;13899;51.174;4.456;2024-03-08T06:09:14;4.10;99.90
25918;DHT22;13899;51.174;4.456;2024-03-08T06:11:48;4.20;99.90
25918;DHT22;13899;51.174;4.456;2024-03-08T06:14:13;3.90;99.90
25918;DHT22;13899;51.174;4.456;2024-03-08T06:16:41;4.20;99.90
25918;DHT22;13899;51.174;4.456;2024-03-08T06:19:07;4.50;99.90
25918;DHT22;13899;51.174;4.456;2024-03-08T06:21:33;4.60;99.90
25918;DHT22;13899;51.174;4.456;2024-03-08T06:23:58;4.50;99.90
25918;DHT22;13899;51.174;4.456;2024-03-08T06:26:24;4.20;99.90
25918;DHT22;13899;51.174;4.456;2024-03-08T06:28:50;4.20;99.90
25918;DHT22;13899;51.174;4.456;2024-03-08T06:31:19;4.00;99.90
25918;DHT22;13899;51.174;4.456;2024-03-08T06:33:45;4.40;99.90
25918;DHT22;13899;51.174;4.456;2024-03-08T06:36:10;4.20;99.90
25918;DHT22;13899;51.174;4.456;2024-03-08T06:38:40;3.90;99.90
25918;DHT22;13899;51.174;4.456;2024-03-08T06:41:08;3.80;99.90
25918;DHT22;13899;51.174;4.456;2024-03-08T06:43:34;3.80;99.90
25918;DHT22;13899;51.174;4.456;2024-03-08T06:45:59;3.90;99.90
25918;DHT22;13899;51.174;4.456;2024-03-08T06:48:25;3.70;99.90
25918;DHT22;13899;51.174;4.456;2024-03-08T06:50:50;3.50;99.90
25918;DHT22;13899;51.174;4.456;2024-03-08T06:53:16;3.80;99.90
25918;DHT22;13899;51.174;4.456;2024-03-08T06:55:44;3.80;99.90
25918;DHT22;13899;51.174;4.456;2024-03-08T06:58:10;3.80;99.90
25918;DHT22;13899;51.174;4.456;2024-03-08T07:00:36;4.00;99.90
25918;DHT22;13899;51.174;4.456;2024-03-08T07:03:02;4.00;99.90
25918;DHT22;13899;51.174;4.456;2024-03-08T07:05:28;3.80;99.90
25918;DHT22;13899;51.174;4.456;2024-03-08T07:07:54;4.10;99.90
25918;DHT22;13899;51.174;4.456;2024-03-08T07:10:20;4.30;99.90
25918;DHT22;13899;51.174;4.456;2024-03-08T07:12:46;4.20;99.90
25918;DHT22;13899;51.174;4.456;2024-03-08T07:15:12;4.00;99.90
25918;DHT22;13899;51.174;4.456;2024-03-08T07:17:41;3.90;99.90
25918;DHT22;13899;51.174;4.456;2024-03-08T07:20:09;4.10;99.90
25918;DHT22;13899;51.174;4.456;2024-03-08T07:22:37;4.10;99.90
25918;DHT22;13899;51.174;4.456;2024-03-08T07:25:06;4.60;99.90
25918;DHT22;13899;51.174;4.456;2024-03-08T07:30:13;4.60;99.90
25918;DHT22;13899;51.174;4.456;2024-03-08T07:32:58;4.70;99.90
25918;DHT22;13899;51.174;4.456;2024-03-08T07:35:24;4.90;99.90
25918;DHT22;13899;51.174;4.456;2024-03-08T07:37:52;4.90;99.90
25918;DHT22;13899;51.174;4.456;2024-03-08T07:40:20;5.00;99.90
25918;DHT22;13899;51.174;4.456;2024-03-08T07:42:46;4.90;99.90
25918;DHT22;13899;51.174;4.456;2024-03-08T07:45:11;4.90;99.90
25918;DHT22;13899;51.174;4.456;2024-03-08T07:47:38;4.60;99.90
25918;DHT22;13899;51.174;4.456;2024-03-08T07:50:03;4.80;99.90
25918;DHT22;13899;51.174;4.456;2024-03-08T07:52:29;4.90;99.90
25918;DHT22;13899;51.174;4.456;2024-03-08T07:54:55;5.00;99.90
25918;DHT22;13899;51.174;4.456;2024-03-08T07:57:20;5.10;99.90
25918;DHT22;13899;51.174;4.456;2024-03-08T07:59:46;5.20;99.90
25918;DHT22;13899;51.174;4.456;2024-03-08T08:02:12;5.20;99.90
25918;DHT22;13899;51.174;4.456;2024-03-08T08:04:38;5.40;99.90
25918;DHT22;13899;51.174;4.456;2024-03-08T08:07:04;5.20;99.90
25918;DHT22;13899;51.174;4.456;2024-03-08T08:09:29;5.10;99.90
25918;DHT22;13899;51.174;4.456;2024-03-08T08:12:00;5.20;99.90
25918;DHT22;13899;51.174;4.456;2024-03-08T08:14:27;5.20;99.90
25918;DHT22;13899;51.174;4.456;2024-03-08T08:16:52;5.20;99.90
25918;DHT22;13899;51.174;4.456;2024-03-08T08:19:18;5.50;99.90
25918;DHT22;13899;51.174;4.456;2024-03-08T08:21:44;5.70;99.90
25918;DHT22;13899;51.174;4.456;2024-03-08T08:24:09;5.80;99.90
25918;DHT22;13899;51.174;4.456;2024-03-08T08:26:36;5.90;99.90
25918;DHT22;13899;51.174;4.456;2024-03-08T08:29:01;6.00;99.90
25918;DHT22;13899;51.174;4.456;2024-03-08T08:31:27;5.90;99.90
25918;DHT22;13899;51.174;4.456;2024-03-08T08:33:53;5.90;99.90
25918;DHT22;13899;51.174;4.456;2024-03-08T08:36:26;6.00;99.90
25918;DHT22;13899;51.174;4.456;2024-03-08T08:38:55;6.30;99.90
25918;DHT22;13899;51.174;4.456;2024-03-08T08:41:23;6.40;99.90
25918;DHT22;13899;51.174;4.456;2024-03-08T08:43:48;6.50;99.90
25918;DHT22;13899;51.174;4.456;2024-03-08T08:46:17;6.40;99.90
25918;DHT22;13899;51.174;4.456;2024-03-08T08:48:43;6.50;99.90
25918;DHT22;13899;51.174;4.456;2024-03-08T08:51:10;6.70;99.90
25918;DHT22;13899;51.174;4.456;2024-03-08T08:53:40;6.90;99.90
25918;DHT22;13899;51.174;4.456;2024-03-08T08:56:08;7.10;99.90
25918;DHT22;13899;51.174;4.456;2024-03-08T08:58:34;7.10;99.90
25918;DHT22;13899;51.174;4.456;2024-03-08T09:01:00;7.30;99.90
25918;DHT22;13899;51.174;4.456;2024-03-08T09:03:25;7.40;99.90
25918;DHT22;13899;51.174;4.456;2024-03-08T09:05:52;7.50;99.90
25918;DHT22;13899;51.174;4.456;2024-03-08T09:08:18;7.50;99.90
25918;DHT22;13899;51.174;4.456;2024-03-08T09:10:43;7.20;99.90
25918;DHT22;13899;51.174;4.456;2024-03-08T09:13:09;7.20;99.90
25918;DHT22;13899;51.174;4.456;2024-03-08T09:15:35;7.20;99.90
25918;DHT22;13899;51.174;4.456;2024-03-08T09:18:01;7.40;99.90
25918;DHT22;13899;51.174;4.456;2024-03-08T09:20:27;7.60;99.90
25918;DHT22;13899;51.174;4.456;2024-03-08T09:22:54;7.60;99.90
25918;DHT22;13899;51.174;4.456;2024-03-08T09:25:20;7.80;99.90
25918;DHT22;13899;51.174;4.456;2024-03-08T09:27:45;8.20;99.90
25918;DHT22;13899;51.174;4.456;2024-03-08T09:30:11;8.60;99.90
25918;DHT22;13899;51.174;4.456;2024-03-08T09:32:38;8.40;99.90
25918;DHT22;13899;51.174;4.456;2024-03-08T09:35:04;8.80;99.90
25918;DHT22;13899;51.174;4.456;2024-03-08T09:37:32;8.90;99.90
25918;DHT22;13899;51.174;4.456;2024-03-08T09:39:59;8.90;99.90
25918;DHT22;13899;51.174;4.456;2024-03-08T09:42:24;8.80;99.90
25918;DHT22;13899;51.174;4.456;2024-03-08T09:44:50;9.00;99.90
25918;DHT22;13899;51.174;4.456;2024-03-08T09:47:16;8.90;99.90
25918;DHT22;13899;51.174;4.456;2024-03-08T09:49:43;9.00;99.90
25918;DHT22;13899;51.174;4.456;2024-03-08T09:52:08;10.10;99.90
25918;DHT22;13899;51.174;4.456;2024-03-08T09:54:35;10.20;99.90
25918;DHT22;13899;51.174;4.456;2024-03-08T09:57:01;10.60;99.90
25918;DHT22;13899;51.174;4.456;2024-03-08T09:59:29;11.50;99.90
25918;DHT22;13899;51.174;4.456;2024-03-08T10:02:01;11.70;99.90
25918;DHT22;13899;51.174;4.456;2024-03-08T10:04:30;12.50;99.90
25918;DHT22;13899;51.174;4.456;2024-03-08T10:07:00;12.00;99.90
25918;DHT22;13899;51.174;4.456;2024-03-08T10:09:26;12.60;99.90
25918;DHT22;13899;51.174;4.456;2024-03-08T10:11:55;13.70;99.90
25918;DHT22;13899;51.174;4.456;2024-03-08T10:14:21;13.50;99.90
25918;DHT22;13899;51.174;4.456;2024-03-08T10:16:46;12.50;99.90
25918;DHT22;13899;51.174;4.456;2024-03-08T10:19:12;13.00;99.90
25918;DHT22;13899;51.174;4.456;2024-03-08T10:21:51;13.70;99.90
25918;DHT22;13899;51.174;4.456;2024-03-08T10:24:22;14.40;99.90
25918;DHT22;13899;51.174;4.456;2024-03-08T10:26:51;14.50;99.90
25918;DHT22;13899;51.174;4.456;2024-03-08T10:29:16;14.20;99.90
25918;DHT22;13899;51.174;4.456;2024-03-08T10:31:44;14.70;99.90
25918;DHT22;13899;51.174;4.456;2024-03-08T10:34:12;15.40;99.90
25918;DHT22;13899;51.174;4.456;2024-03-08T10:36:38;16.00;99.90
25918;DHT22;13899;51.174;4.456;2024-03-08T10:39:06;15.30;99.90
25918;DHT22;13899;51.174;4.456;2024-03-08T10:41:34;16.60;98.60
25918;DHT22;13899;51.174;4.456;2024-03-08T10:44:18;16.50;96.70
25918;DHT22;13899;51.174;4.456;2024-03-08T10:49:22;15.50;98.50
25918;DHT22;13899;51.174;4.456;2024-03-08T10:51:50;15.00;98.10
25918;DHT22;13899;51.174;4.456;2024-03-08T10:54:17;15.70;99.20
25918;DHT22;13899;51.174;4.456;2024-03-08T10:56:44;15.30;98.20
25918;DHT22;13899;51.174;4.456;2024-03-08T10:59:09;15.50;98.10
25918;DHT22;13899;51.174;4.456;2024-03-08T11:01:36;15.90;97.30
25918;DHT22;13899;51.174;4.456;2024-03-08T11:04:04;16.50;96.20
25918;DHT22;13899;51.174;4.456;2024-03-08T11:06:30;16.00;96.60
25918;DHT22;13899;51.174;4.456;2024-03-08T11:11:50;17.20;94.20
25918;DHT22;13899;51.174;4.456;2024-03-08T11:17:01;18.60;88.10
25918;DHT22;13899;51.174;4.456;2024-03-08T11:19:32;17.50;87.90
25918;DHT22;13899;51.174;4.456;2024-03-08T11:21:58;17.60;88.60
25918;DHT22;13899;51.174;4.456;2024-03-08T11:24:24;17.30;88.00
25918;DHT22;13899;51.174;4.456;2024-03-08T11:26:52;17.40;88.70
25918;DHT22;13899;51.174;4.456;2024-03-08T11:32:19;16.20;90.70
25918;DHT22;13899;51.174;4.456;2024-03-08T11:34:47;17.50;90.60
25918;DHT22;13899;51.174;4.456;2024-03-08T11:37:15;17.80;86.20
25918;DHT22;13899;51.174;4.456;2024-03-08T11:39:47;18.30;83.20
25918;DHT22;13899;51.174;4.456;2024-03-08T11:42:13;19.30;81.50
25918;DHT22;13899;51.174;4.456;2024-03-08T11:44:39;19.10;79.30
25918;DHT22;13899;51.174;4.456;2024-03-08T11:47:09;18.50;80.30
25918;DHT22;13899;51.174;4.456;2024-03-08T11:49:36;17.60;80.30
25918;DHT22;13899;51.174;4.456;2024-03-08T11:52:02;17.70;85.10
25918;DHT22;13899;51.174;4.456;2024-03-08T11:54:28;18.20;79.10
25918;DHT22;13899;51.174;4.456;2024-03-08T11:56:56;18.40;77.50
25918;DHT22;13899;51.174;4.456;2024-03-08T11:59:27;18.40;77.70
25918;DHT22;13899;51.174;4.456;2024-03-08T12:01:59;19.40;77.20
25918;DHT22;13899;51.174;4.456;2024-03-08T12:04:27;18.60;75.90
25918;DHT22;13899;51.174;4.456;2024-03-08T12:06:52;19.10;74.00
25918;DHT22;13899;51.174;4.456;2024-03-08T12:09:18;18.90;75.50
25918;DHT22;13899;51.174;4.456;2024-03-08T12:11:47;19.60;70.10
25918;DHT22;13899;51.174;4.456;2024-03-08T12:14:13;20.20;69.90
25918;DHT22;13899;51.174;4.456;2024-03-08T12:16:38;19.20;69.00
25918;DHT22;13899;51.174;4.456;2024-03-08T12:19:04;20.00;69.10
25918;DHT22;13899;51.174;4.456;2024-03-08T12:21:31;19.30;67.30
25918;DHT22;13899;51.174;4.456;2024-03-08T12:24:07;19.80;69.20
25918;DHT22;13899;51.174;4.456;2024-03-08T12:26:37;19.70;69.40
25918;DHT22;13899;51.174;4.456;2024-03-08T12:29:19;19.40;69.20
25918;DHT22;13899;51.174;4.456;2024-03-08T12:31:49;20.20;66.20
25918;DHT22;13899;51.174;4.456;2024-03-08T12:34:15;20.80;64.80
25918;DHT22;13899;51.174;4.456;2024-03-08T12:36:45;21.40;62.60
25918;DHT22;13899;51.174;4.456;2024-03-08T12:39:13;21.10;64.00
25918;DHT22;13899;51.174;4.456;2024-03-08T12:41:41;20.60;62.70
25918;DHT22;13899;51.174;4.456;2024-03-08T12:44:07;19.70;64.70
25918;DHT22;13899;51.174;4.456;2024-03-08T12:46:36;21.00;60.90
25918;DHT22;13899;51.174;4.456;2024-03-08T12:49:07;20.40;63.80
25918;DHT22;13899;51.174;4.456;2024-03-08T12:51:32;21.60;61.60
25918;DHT22;13899;51.174;4.456;2024-03-08T12:53:58;21.00;61.20
25918;DHT22;13899;51.174;4.456;2024-03-08T12:56:31;21.80;60.40
25918;DHT22;13899;51.174;4.456;2024-03-08T12:58:57;22.00;59.60
25918;DHT22;13899;51.174;4.456;2024-03-08T13:01:23;20.80;61.00
25918;DHT22;13899;51.174;4.456;2024-03-08T13:03:49;20.80;62.20
25918;DHT22;13899;51.174;4.456;2024-03-08T13:06:18;21.10;60.90
25918;DHT22;13899;51.174;4.456;2024-03-08T13:08:44;20.70;62.60
25918;DHT22;13899;51.174;4.456;2024-03-08T13:11:10;20.70;61.40
25918;DHT22;13899;51.174;4.456;2024-03-08T13:13:45;20.50;61.50
25918;DHT22;13899;51.174;4.456;2024-03-08T13:16:14;21.10;60.90
25918;DHT22;13899;51.174;4.456;2024-03-08T13:18:40;22.50;58.30
25918;DHT22;13899;51.174;4.456;2024-03-08T13:21:07;22.90;56.40
25918;DHT22;13899;51.174;4.456;2024-03-08T13:23:35;21.10;57.70
25918;DHT22;13899;51.174;4.456;2024-03-08T13:26:11;20.50;58.50
25918;DHT22;13899;51.174;4.456;2024-03-08T13:28:45;20.40;59.00
25918;DHT22;13899;51.174;4.456;2024-03-08T13:31:10;20.60;59.60
25918;DHT22;13899;51.174;4.456;2024-03-08T13:33:36;20.20;58.80
25918;DHT22;13899;51.174;4.456;2024-03-08T13:36:02;20.70;58.80
25918;DHT22;13899;51.174;4.456;2024-03-08T13:38:31;20.70;59.70
25918;DHT22;13899;51.174;4.456;2024-03-08T13:40:58;20.40;61.30
25918;DHT22;13899;51.174;4.456;2024-03-08T13:43:23;21.50;59.30
25918;DHT22;13899;51.174;4.456;2024-03-08T13:45:49;22.10;58.70
25918;DHT22;13899;51.174;4.456;2024-03-08T13:48:15;19.90;59.50
25918;DHT22;13899;51.174;4.456;2024-03-08T13:50:41;19.40;62.90
25918;DHT22;13899;51.174;4.456;2024-03-08T13:53:07;20.20;60.60
25918;DHT22;13899;51.174;4.456;2024-03-08T13:55:32;19.90;61.20
25918;DHT22;13899;51.174;4.456;2024-03-08T13:57:59;19.30;62.60
25918;DHT22;13899;51.174;4.456;2024-03-08T14:00:25;19.90;63.00
25918;DHT22;13899;51.174;4.456;2024-03-08T14:02:53;20.50;60.50
25918;DHT22;13899;51.174;4.456;2024-03-08T14:05:19;20.70;60.90
25918;DHT22;13899;51.174;4.456;2024-03-08T14:07:45;21.30;59.10
25918;DHT22;13899;51.174;4.456;2024-03-08T14:10:13;21.70;58.70
25918;DHT22;13899;51.174;4.456;2024-03-08T14:12:39;21.90;58.00
25918;DHT22;13899;51.174;4.456;2024-03-08T14:15:05;21.40;57.70
25918;DHT22;13899;51.174;4.456;2024-03-08T14:17:32;21.80;57.50
25918;DHT22;13899;51.174;4.456;2024-03-08T14:19:57;21.70;56.60
25918;DHT22;13899;51.174;4.456;2024-03-08T14:22:24;21.70;57.60
25918;DHT22;13899;51.174;4.456;2024-03-08T14:24:49;20.70;58.10
25918;DHT22;13899;51.174;4.456;2024-03-08T14:27:17;20.50;58.70
25918;DHT22;13899;51.174;4.456;2024-03-08T14:29:44;20.80;59.00
25918;DHT22;13899;51.174;4.456;2024-03-08T14:32:09;21.50;58.40
25918;DHT22;13899;51.174;4.456;2024-03-08T14:34:35;21.60;57.60
25918;DHT22;13899;51.174;4.456;2024-03-08T14:37:01;22.10;56.20
25918;DHT22;13899;51.174;4.456;2024-03-08T14:39:30;22.10;55.70
25918;DHT22;13899;51.174;4.456;2024-03-08T14:41:55;21.60;55.90
25918;DHT22;13899;51.174;4.456;2024-03-08T14:44:23;21.90;56.30
25918;DHT22;13899;51.174;4.456;2024-03-08T14:46:54;21.70;56.80
25918;DHT22;13899;51.174;4.456;2024-03-08T14:49:22;22.70;55.90
25918;DHT22;13899;51.174;4.456;2024-03-08T14:51:47;22.50;56.20
25918;DHT22;13899;51.174;4.456;2024-03-08T14:54:13;21.60;55.70
25918;DHT22;13899;51.174;4.456;2024-03-08T14:56:38;21.70;56.20
25918;DHT22;13899;51.174;4.456;2024-03-08T14:59:06;22.40;54.70
25918;DHT22;13899;51.174;4.456;2024-03-08T15:01:32;21.70;55.60
25918;DHT22;13899;51.174;4.456;2024-03-08T15:04:01;20.90;56.10
25918;DHT22;13899;51.174;4.456;2024-03-08T15:06:51;21.80;56.30
25918;DHT22;13899;51.174;4.456;2024-03-08T15:09:18;21.30;55.70
25918;DHT22;13899;51.174;4.456;2024-03-08T15:11:46;22.60;54.00
25918;DHT22;13899;51.174;4.456;2024-03-08T15:14:14;22.30;54.00
25918;DHT22;13899;51.174;4.456;2024-03-08T15:16:41;21.80;54.20
25918;DHT22;13899;51.174;4.456;2024-03-08T15:19:07;21.00;54.70
25918;DHT22;13899;51.174;4.456;2024-03-08T15:21:33;20.90;55.90
25918;DHT22;13899;51.174;4.456;2024-03-08T15:24:00;20.10;56.40
25918;DHT22;13899;51.174;4.456;2024-03-08T15:26:25;20.70;56.10
25918;DHT22;13899;51.174;4.456;2024-03-08T15:28:51;20.70;56.90
25918;DHT22;13899;51.174;4.456;2024-03-08T15:31:17;21.60;55.30
25918;DHT22;13899;51.174;4.456;2024-03-08T15:33:44;21.40;54.60
25918;DHT22;13899;51.174;4.456;2024-03-08T15:36:17;21.10;55.40
25918;DHT22;13899;51.174;4.456;2024-03-08T15:38:42;21.00;55.50
25918;DHT22;13899;51.174;4.456;2024-03-08T15:41:15;20.40;55.70
25918;DHT22;13899;51.174;4.456;2024-03-08T15:43:43;20.30;56.40
25918;DHT22;13899;51.174;4.456;2024-03-08T15:46:09;21.10;56.40
25918;DHT22;13899;51.174;4.456;2024-03-08T15:48:35;21.10;55.70
25918;DHT22;13899;51.174;4.456;2024-03-08T15:51:01;20.70;57.10